sensor_id;sensor_type;location;lat;lon;timestamp;P1;P2;P0
55043;PMS5003;54902;50.420;18.854;2023-07-13T00:00:28;7;7;5
55043;PMS5003;54902;50.420;18.854;2023-07-13T00:01:02;7;7;5
55043;PMS5003;54902;50.420;18.854;2023-07-13T00:01:33;7;7;5
55043;PMS5003;54902;50.420;18.854;2023-07-13T00:02:04;7;7;5
55043;PMS5003;54902;50.420;18.854;2023-07-13T00:02:35;7;7;5
55043;PMS5003;54902;50.420;18.854;2023-07-13T00:03:06;9;9;6
55043;PMS5003;54902;50.420;18.854;2023-07-13T00:03:37;9;9;6
55043;PMS5003;54902;50.420;18.854;2023-07-13T00:04:08;9;9;6
55043;PMS5003;54902;50.420;18.854;2023-07-13T00:04:38;9;9;6
55043;PMS5003;54902;50.420;18.854;2023-07-13T00:05:09;9;9;6
55043;PMS5003;54902;50.420;18.854;2023-07-13T00:05:41;9;9;6
55043;PMS5003;54902;50.420;18.854;2023-07-13T00:06:12;9;9;6
55043;PMS5003;54902;50.420;18.854;2023-07-13T00:06:43;9;9;6
55043;PMS5003;54902;50.420;18.854;2023-07-13T00:07:15;9;9;6
55043;PMS5003;54902;50.420;18.854;2023-07-13T00:07:50;9;9;6
55043;PMS5003;54902;50.420;18.854;2023-07-13T00:08:21;9;9;6
55043;PMS5003;54902;50.420;18.854;2023-07-13T00:08:53;9;9;6
55043;PMS5003;54902;50.420;18.854;2023-07-13T00:09:24;9;9;6
55043;PMS5003;54902;50.420;18.854;2023-07-13T00:09:55;9;9;6
55043;PMS5003;54902;50.420;18.854;2023-07-13T00:10:26;7;7;5
55043;PMS5003;54902;50.420;18.854;2023-07-13T00:10:57;7;7;5
55043;PMS5003;54902;50.420;18.854;2023-07-13T00:11:28;7;7;5
55043;PMS5003;54902;50.420;18.854;2023-07-13T00:12:00;7;7;5
55043;PMS5003;54902;50.420;18.854;2023-07-13T00:12:34;7;7;5
55043;PMS5003;54902;50.420;18.854;2023-07-13T00:13:06;7;7;5
55043;PMS5003;54902;50.420;18.854;2023-07-13T00:13:37;9;9;7
55043;PMS5003;54902;50.420;18.854;2023-07-13T00:14:10;6;6;6
55043;PMS5003;54902;50.420;18.854;2023-07-13T00:14:41;6;6;6
55043;PMS5003;54902;50.420;18.854;2023-07-13T00:15:13;6;6;6
55043;PMS5003;54902;50.420;18.854;2023-07-13T00:15:51;6;6;6
55043;PMS5003;54902;50.420;18.854;2023-07-13T00:16:24;6;6;6
55043;PMS5003;54902;50.420;18.854;2023-07-13T00:16:55;6;6;6
55043;PMS5003;54902;50.420;18.854;2023-07-13T00:17:26;6;6;6
55043;PMS5003;54902;50.420;18.854;2023-07-13T00:17:58;6;6;6
55043;PMS5003;54902;50.420;18.854;2023-07-13T00:18:31;6;6;6
55043;PMS5003;54902;50.420;18.854;2023-07-13T00:19:02;10;10;9
55043;PMS5003;54902;50.420;18.854;2023-07-13T00:19:33;10;10;9
55043;PMS5003;54902;50.420;18.854;2023-07-13T00:20:06;10;10;9
55043;PMS5003;54902;50.420;18.854;2023-07-13T00:20:39;8;8;6
55043;PMS5003;54902;50.420;18.854;2023-07-13T00:21:11;8;8;6
55043;PMS5003;54902;50.420;18.854;2023-07-13T00:21:42;8;8;6
55043;PMS5003;54902;50.420;18.854;2023-07-13T00:22:14;8;8;6
55043;PMS5003;54902;50.420;18.854;2023-07-13T00:22:44;8;8;6
55043;PMS5003;54902;50.420;18.854;2023-07-13T00:23:15;8;8;6
55043;PMS5003;54902;50.420;18.854;2023-07-13T00:23:48;8;8;6
55043;PMS5003;54902;50.420;18.854;2023-07-13T00:24:19;10;10;7
55043;PMS5003;54902;50.420;18.854;2023-07-13T00:24:54;10;10;7
55043;PMS5003;54902;50.420;18.854;2023-07-13T00:25:28;10;10;7
55043;PMS5003;54902;50.420;18.854;2023-07-13T00:26:03;6;6;5
55043;PMS5003;54902;50.420;18.854;2023-07-13T00:26:35;6;6;5
55043;PMS5003;54902;50.420;18.854;2023-07-13T00:27:06;6;6;5
55043;PMS5003;54902;50.420;18.854;2023-07-13T00:27:36;6;6;5
55043;PMS5003;54902;50.420;18.854;2023-07-13T00:28:07;6;6;5
55043;PMS5003;54902;50.420;18.854;2023-07-13T00:28:38;6;6;5
55043;PMS5003;54902;50.420;18.854;2023-07-13T00:29:12;6;6;5
55043;PMS5003;54902;50.420;18.854;2023-07-13T00:29:44;6;6;6
55043;PMS5003;54902;50.420;18.854;2023-07-13T00:30:15;6;6;6
55043;PMS5003;54902;50.420;18.854;2023-07-13T00:30:46;6;6;6
55043;PMS5003;54902;50.420;18.854;2023-07-13T00:31:17;6;6;6
55043;PMS5003;54902;50.420;18.854;2023-07-13T00:31:49;6;6;6
55043;PMS5003;54902;50.420;18.854;2023-07-13T00:32:20;6;6;6
55043;PMS5003;54902;50.420;18.854;2023-07-13T00:32:51;6;6;6
55043;PMS5003;54902;50.420;18.854;2023-07-13T00:33:22;6;6;6
55043;PMS5003;54902;50.420;18.854;2023-07-13T00:33:53;6;6;6
55043;PMS5003;54902;50.420;18.854;2023-07-13T00:34:24;6;6;6
55043;PMS5003;54902;50.420;18.854;2023-07-13T00:34:55;7;7;7
55043;PMS5003;54902;50.420;18.854;2023-07-13T00:35:30;7;7;7
55043;PMS5003;54902;50.420;18.854;2023-07-13T00:36:01;7;7;7
55043;PMS5003;54902;50.420;18.854;2023-07-13T00:36:32;7;7;7
55043;PMS5003;54902;50.420;18.854;2023-07-13T00:37:05;7;7;7
55043;PMS5003;54902;50.420;18.854;2023-07-13T00:37:37;7;7;7
55043;PMS5003;54902;50.420;18.854;2023-07-13T00:38:11;7;7;7
55043;PMS5003;54902;50.420;18.854;2023-07-13T00:38:42;7;7;7
55043;PMS5003;54902;50.420;18.854;2023-07-13T00:39:13;7;7;7
55043;PMS5003;54902;50.420;18.854;2023-07-13T00:39:44;7;7;7
55043;PMS5003;54902;50.420;18.854;2023-07-13T00:40:15;7;7;7
55043;PMS5003;54902;50.420;18.854;2023-07-13T00:40:46;7;7;7
55043;PMS5003;54902;50.420;18.854;2023-07-13T00:41:17;7;7;7
55043;PMS5003;54902;50.420;18.854;2023-07-13T00:41:49;7;7;7
55043;PMS5003;54902;50.420;18.854;2023-07-13T00:42:20;7;7;7
55043;PMS5003;54902;50.420;18.854;2023-07-13T00:42:52;5;5;5
55043;PMS5003;54902;50.420;18.854;2023-07-13T00:43:26;5;5;5
55043;PMS5003;54902;50.420;18.854;2023-07-13T00:43:58;5;5;5
55043;PMS5003;54902;50.420;18.854;2023-07-13T00:44:30;5;5;5
55043;PMS5003;54902;50.420;18.854;2023-07-13T00:45:05;5;5;5
55043;PMS5003;54902;50.420;18.854;2023-07-13T00:46:30;7;7;6
55043;PMS5003;54902;50.420;18.854;2023-07-13T00:47:02;7;7;6
55043;PMS5003;54902;50.420;18.854;2023-07-13T00:47:33;7;7;6
55043;PMS5003;54902;50.420;18.854;2023-07-13T00:48:04;7;7;6
55043;PMS5003;54902;50.420;18.854;2023-07-13T00:48:36;7;7;6
55043;PMS5003;54902;50.420;18.854;2023-07-13T00:49:10;7;7;6
55043;PMS5003;54902;50.420;18.854;2023-07-13T00:49:45;7;7;6
55043;PMS5003;54902;50.420;18.854;2023-07-13T00:50:16;7;7;6
55043;PMS5003;54902;50.420;18.854;2023-07-13T00:50:51;7;7;6
55043;PMS5003;54902;50.420;18.854;2023-07-13T00:51:26;8;8;7
55043;PMS5003;54902;50.420;18.854;2023-07-13T00:52:39;8;8;7
55043;PMS5003;54902;50.420;18.854;2023-07-13T00:53:13;5;5;4
55043;PMS5003;54902;50.420;18.854;2023-07-13T00:53:44;5;5;4
55043;PMS5003;54902;50.420;18.854;2023-07-13T00:54:18;5;5;4
55043;PMS5003;54902;50.420;18.854;2023-07-13T00:54:53;5;5;4
55043;PMS5003;54902;50.420;18.854;2023-07-13T00:55:25;5;5;4
55043;PMS5003;54902;50.420;18.854;2023-07-13T00:55:56;5;5;4
55043;PMS5003;54902;50.420;18.854;2023-07-13T00:56:27;5;5;4
55043;PMS5003;54902;50.420;18.854;2023-07-13T00:57:01;6;6;5
55043;PMS5003;54902;50.420;18.854;2023-07-13T00:57:34;6;6;5
55043;PMS5003;54902;50.420;18.854;2023-07-13T00:58:05;6;6;5
55043;PMS5003;54902;50.420;18.854;2023-07-13T00:58:37;6;6;5
55043;PMS5003;54902;50.420;18.854;2023-07-13T00:59:08;6;6;5
55043;PMS5003;54902;50.420;18.854;2023-07-13T00:59:43;6;6;5
55043;PMS5003;54902;50.420;18.854;2023-07-13T01:00:17;6;6;5
55043;PMS5003;54902;50.420;18.854;2023-07-13T01:00:52;6;6;5
55043;PMS5003;54902;50.420;18.854;2023-07-13T01:01:23;6;6;5
55043;PMS5003;54902;50.420;18.854;2023-07-13T01:01:54;6;6;5
55043;PMS5003;54902;50.420;18.854;2023-07-13T01:02:25;7;7;6
55043;PMS5003;54902;50.420;18.854;2023-07-13T01:02:58;7;7;6
55043;PMS5003;54902;50.420;18.854;2023-07-13T01:03:34;7;7;6
55043;PMS5003;54902;50.420;18.854;2023-07-13T01:04:06;7;7;6
55043;PMS5003;54902;50.420;18.854;2023-07-13T01:04:38;7;7;6
55043;PMS5003;54902;50.420;18.854;2023-07-13T01:05:13;7;7;6
55043;PMS5003;54902;50.420;18.854;2023-07-13T01:05:46;7;7;6
55043;PMS5003;54902;50.420;18.854;2023-07-13T01:06:20;7;7;6
55043;PMS5003;54902;50.420;18.854;2023-07-13T01:06:51;7;7;6
55043;PMS5003;54902;50.420;18.854;2023-07-13T01:07:23;7;7;6
55043;PMS5003;54902;50.420;18.854;2023-07-13T01:07:54;7;7;6
55043;PMS5003;54902;50.420;18.854;2023-07-13T01:08:25;7;7;6
55043;PMS5003;54902;50.420;18.854;2023-07-13T01:08:56;7;7;6
55043;PMS5003;54902;50.420;18.854;2023-07-13T01:09:29;7;7;6
55043;PMS5003;54902;50.420;18.854;2023-07-13T01:10:00;7;7;6
55043;PMS5003;54902;50.420;18.854;2023-07-13T01:10:31;6;6;5
55043;PMS5003;54902;50.420;18.854;2023-07-13T01:11:10;6;6;5
55043;PMS5003;54902;50.420;18.854;2023-07-13T01:11:41;6;6;5
55043;PMS5003;54902;50.420;18.854;2023-07-13T01:12:12;6;6;5
55043;PMS5003;54902;50.420;18.854;2023-07-13T01:12:44;6;6;5
55043;PMS5003;54902;50.420;18.854;2023-07-13T01:13:15;6;6;3
55043;PMS5003;54902;50.420;18.854;2023-07-13T01:13:45;6;6;3
55043;PMS5003;54902;50.420;18.854;2023-07-13T01:14:16;7;7;5
55043;PMS5003;54902;50.420;18.854;2023-07-13T01:14:47;7;7;5
55043;PMS5003;54902;50.420;18.854;2023-07-13T01:15:38;7;7;5
55043;PMS5003;54902;50.420;18.854;2023-07-13T01:16:05;7;7;5
55043;PMS5003;54902;50.420;18.854;2023-07-13T01:16:46;7;7;5
55043;PMS5003;54902;50.420;18.854;2023-07-13T01:17:18;7;7;5
55043;PMS5003;54902;50.420;18.854;2023-07-13T01:17:49;7;7;5
55043;PMS5003;54902;50.420;18.854;2023-07-13T01:18:25;7;7;5
55043;PMS5003;54902;50.420;18.854;2023-07-13T01:18:57;7;7;5
55043;PMS5003;54902;50.420;18.854;2023-07-13T01:19:36;7;7;5
55043;PMS5003;54902;50.420;18.854;2023-07-13T01:20:09;7;7;5
55043;PMS5003;54902;50.420;18.854;2023-07-13T01:20:40;7;7;5
55043;PMS5003;54902;50.420;18.854;2023-07-13T01:21:12;7;7;5
55043;PMS5003;54902;50.420;18.854;2023-07-13T01:21:43;7;7;5
55043;PMS5003;54902;50.420;18.854;2023-07-13T01:22:15;7;7;5
55043;PMS5003;54902;50.420;18.854;2023-07-13T01:22:47;7;7;5
55043;PMS5003;54902;50.420;18.854;2023-07-13T01:23:18;7;7;5
55043;PMS5003;54902;50.420;18.854;2023-07-13T01:23:50;7;7;5
55043;PMS5003;54902;50.420;18.854;2023-07-13T01:24:21;9;9;6
55043;PMS5003;54902;50.420;18.854;2023-07-13T01:24:53;9;9;6
55043;PMS5003;54902;50.420;18.854;2023-07-13T01:25:24;9;9;6
55043;PMS5003;54902;50.420;18.854;2023-07-13T01:25:55;9;9;6
55043;PMS5003;54902;50.420;18.854;2023-07-13T01:26:27;9;9;6
55043;PMS5003;54902;50.420;18.854;2023-07-13T01:26:58;9;9;6
55043;PMS5003;54902;50.420;18.854;2023-07-13T01:27:28;9;9;6
55043;PMS5003;54902;50.420;18.854;2023-07-13T01:27:59;9;9;6
55043;PMS5003;54902;50.420;18.854;2023-07-13T01:28:30;9;9;6
55043;PMS5003;54902;50.420;18.854;2023-07-13T01:29:06;9;9;6
55043;PMS5003;54902;50.420;18.854;2023-07-13T01:29:38;9;9;6
55043;PMS5003;54902;50.420;18.854;2023-07-13T01:30:14;9;9;6
55043;PMS5003;54902;50.420;18.854;2023-07-13T01:30:45;9;9;6
55043;PMS5003;54902;50.420;18.854;2023-07-13T01:31:17;9;9;6
55043;PMS5003;54902;50.420;18.854;2023-07-13T01:31:48;9;9;6
55043;PMS5003;54902;50.420;18.854;2023-07-13T01:32:20;9;9;6
55043;PMS5003;54902;50.420;18.854;2023-07-13T01:32:54;9;9;6
55043;PMS5003;54902;50.420;18.854;2023-07-13T01:33:26;9;9;6
55043;PMS5003;54902;50.420;18.854;2023-07-13T01:33:57;9;9;6
55043;PMS5003;54902;50.420;18.854;2023-07-13T01:34:28;9;9;6
55043;PMS5003;54902;50.420;18.854;2023-07-13T01:34:59;9;9;6
55043;PMS5003;54902;50.420;18.854;2023-07-13T01:35:30;9;9;6
55043;PMS5003;54902;50.420;18.854;2023-07-13T01:36:01;9;9;6
55043;PMS5003;54902;50.420;18.854;2023-07-13T01:36:32;9;9;6
55043;PMS5003;54902;50.420;18.854;2023-07-13T01:37:04;9;9;6
55043;PMS5003;54902;50.420;18.854;2023-07-13T01:37:35;7;7;5
55043;PMS5003;54902;50.420;18.854;2023-07-13T01:38:06;7;7;5
55043;PMS5003;54902;50.420;18.854;2023-07-13T01:38:38;7;7;5
55043;PMS5003;54902;50.420;18.854;2023-07-13T01:39:09;7;7;5
55043;PMS5003;54902;50.420;18.854;2023-07-13T01:39:40;7;7;5
55043;PMS5003;54902;50.420;18.854;2023-07-13T01:40:12;8;8;6
55043;PMS5003;54902;50.420;18.854;2023-07-13T01:40:43;8;8;6
55043;PMS5003;54902;50.420;18.854;2023-07-13T01:41:14;8;8;6
55043;PMS5003;54902;50.420;18.854;2023-07-13T01:41:45;8;8;6
55043;PMS5003;54902;50.420;18.854;2023-07-13T01:42:16;8;8;6
55043;PMS5003;54902;50.420;18.854;2023-07-13T01:42:47;8;8;6
55043;PMS5003;54902;50.420;18.854;2023-07-13T01:43:18;8;8;6
55043;PMS5003;54902;50.420;18.854;2023-07-13T01:43:50;8;8;6
55043;PMS5003;54902;50.420;18.854;2023-07-13T01:44:20;8;8;6
55043;PMS5003;54902;50.420;18.854;2023-07-13T01:44:51;8;8;6
55043;PMS5003;54902;50.420;18.854;2023-07-13T01:45:22;9;9;7
55043;PMS5003;54902;50.420;18.854;2023-07-13T01:45:53;9;9;7
55043;PMS5003;54902;50.420;18.854;2023-07-13T01:46:24;9;9;7
55043;PMS5003;54902;50.420;18.854;2023-07-13T01:46:57;9;9;7
55043;PMS5003;54902;50.420;18.854;2023-07-13T01:47:29;9;9;7
55043;PMS5003;54902;50.420;18.854;2023-07-13T01:48:01;9;9;7
55043;PMS5003;54902;50.420;18.854;2023-07-13T01:48:32;9;9;7
55043;PMS5003;54902;50.420;18.854;2023-07-13T01:49:03;9;9;7
55043;PMS5003;54902;50.420;18.854;2023-07-13T01:49:33;9;9;7
55043;PMS5003;54902;50.420;18.854;2023-07-13T01:50:04;9;9;7
55043;PMS5003;54902;50.420;18.854;2023-07-13T01:50:36;9;9;7
55043;PMS5003;54902;50.420;18.854;2023-07-13T01:51:07;9;9;7
55043;PMS5003;54902;50.420;18.854;2023-07-13T01:51:38;9;9;7
55043;PMS5003;54902;50.420;18.854;2023-07-13T01:52:09;9;9;7
55043;PMS5003;54902;50.420;18.854;2023-07-13T01:52:40;9;9;7
55043;PMS5003;54902;50.420;18.854;2023-07-13T01:53:11;9;9;7
55043;PMS5003;54902;50.420;18.854;2023-07-13T01:53:42;9;9;7
55043;PMS5003;54902;50.420;18.854;2023-07-13T01:54:13;9;9;7
55043;PMS5003;54902;50.420;18.854;2023-07-13T01:54:44;9;9;7
55043;PMS5003;54902;50.420;18.854;2023-07-13T01:55:15;9;9;7
55043;PMS5003;54902;50.420;18.854;2023-07-13T01:55:46;9;9;7
55043;PMS5003;54902;50.420;18.854;2023-07-13T01:56:17;9;9;7
55043;PMS5003;54902;50.420;18.854;2023-07-13T01:56:48;9;9;7
55043;PMS5003;54902;50.420;18.854;2023-07-13T01:57:19;9;9;7
55043;PMS5003;54902;50.420;18.854;2023-07-13T01:57:50;9;9;7
55043;PMS5003;54902;50.420;18.854;2023-07-13T01:58:21;9;9;7
55043;PMS5003;54902;50.420;18.854;2023-07-13T01:58:52;9;9;7
55043;PMS5003;54902;50.420;18.854;2023-07-13T01:59:23;9;9;7
55043;PMS5003;54902;50.420;18.854;2023-07-13T01:59:54;9;9;7
55043;PMS5003;54902;50.420;18.854;2023-07-13T02:00:25;9;9;7
55043;PMS5003;54902;50.420;18.854;2023-07-13T02:00:56;9;9;7
55043;PMS5003;54902;50.420;18.854;2023-07-13T02:01:26;9;9;7
55043;PMS5003;54902;50.420;18.854;2023-07-13T02:01:57;9;9;7
55043;PMS5003;54902;50.420;18.854;2023-07-13T02:02:28;9;9;7
55043;PMS5003;54902;50.420;18.854;2023-07-13T02:02:59;9;9;7
55043;PMS5003;54902;50.420;18.854;2023-07-13T02:03:30;9;9;7
55043;PMS5003;54902;50.420;18.854;2023-07-13T02:04:02;9;9;7
55043;PMS5003;54902;50.420;18.854;2023-07-13T02:04:33;9;9;7
55043;PMS5003;54902;50.420;18.854;2023-07-13T02:05:05;9;9;7
55043;PMS5003;54902;50.420;18.854;2023-07-13T02:05:36;9;9;7
55043;PMS5003;54902;50.420;18.854;2023-07-13T02:06:07;9;9;7
55043;PMS5003;54902;50.420;18.854;2023-07-13T02:06:38;9;9;7
55043;PMS5003;54902;50.420;18.854;2023-07-13T02:07:09;9;9;7
55043;PMS5003;54902;50.420;18.854;2023-07-13T02:07:40;9;9;7
55043;PMS5003;54902;50.420;18.854;2023-07-13T02:08:11;9;9;7
55043;PMS5003;54902;50.420;18.854;2023-07-13T02:08:42;9;9;7
55043;PMS5003;54902;50.420;18.854;2023-07-13T02:09:13;9;9;7
55043;PMS5003;54902;50.420;18.854;2023-07-13T02:09:44;9;9;7
55043;PMS5003;54902;50.420;18.854;2023-07-13T02:10:15;9;9;7
55043;PMS5003;54902;50.420;18.854;2023-07-13T02:10:47;9;9;7
55043;PMS5003;54902;50.420;18.854;2023-07-13T02:11:17;9;9;7
55043;PMS5003;54902;50.420;18.854;2023-07-13T02:11:48;9;9;7
55043;PMS5003;54902;50.420;18.854;2023-07-13T02:12:19;9;9;7
55043;PMS5003;54902;50.420;18.854;2023-07-13T02:12:50;9;9;7
55043;PMS5003;54902;50.420;18.854;2023-07-13T02:13:21;9;9;7
55043;PMS5003;54902;50.420;18.854;2023-07-13T02:13:52;9;9;7
55043;PMS5003;54902;50.420;18.854;2023-07-13T02:14:23;9;9;7
55043;PMS5003;54902;50.420;18.854;2023-07-13T02:14:54;9;9;7
55043;PMS5003;54902;50.420;18.854;2023-07-13T02:15:25;9;9;7
55043;PMS5003;54902;50.420;18.854;2023-07-13T02:15:56;9;9;7
55043;PMS5003;54902;50.420;18.854;2023-07-13T02:16:27;9;9;7
55043;PMS5003;54902;50.420;18.854;2023-07-13T02:16:58;9;9;7
55043;PMS5003;54902;50.420;18.854;2023-07-13T02:17:29;9;9;7
55043;PMS5003;54902;50.420;18.854;2023-07-13T02:18:00;9;9;7
55043;PMS5003;54902;50.420;18.854;2023-07-13T02:18:33;9;9;7
55043;PMS5003;54902;50.420;18.854;2023-07-13T02:19:04;9;9;7
55043;PMS5003;54902;50.420;18.854;2023-07-13T02:19:36;9;9;7
55043;PMS5003;54902;50.420;18.854;2023-07-13T02:20:07;9;9;7
55043;PMS5003;54902;50.420;18.854;2023-07-13T02:20:40;9;9;7
55043;PMS5003;54902;50.420;18.854;2023-07-13T02:21:10;9;9;7
55043;PMS5003;54902;50.420;18.854;2023-07-13T02:21:41;9;9;7
55043;PMS5003;54902;50.420;18.854;2023-07-13T02:22:13;9;9;7
55043;PMS5003;54902;50.420;18.854;2023-07-13T02:22:44;9;9;7
55043;PMS5003;54902;50.420;18.854;2023-07-13T02:23:15;9;9;7
55043;PMS5003;54902;50.420;18.854;2023-07-13T02:23:46;9;9;7
55043;PMS5003;54902;50.420;18.854;2023-07-13T02:24:17;9;9;7
55043;PMS5003;54902;50.420;18.854;2023-07-13T02:24:51;9;9;7
55043;PMS5003;54902;50.420;18.854;2023-07-13T02:25:21;9;9;7
55043;PMS5003;54902;50.420;18.854;2023-07-13T02:25:56;9;9;7
55043;PMS5003;54902;50.420;18.854;2023-07-13T02:26:27;9;9;7
55043;PMS5003;54902;50.420;18.854;2023-07-13T02:26:58;9;9;7
55043;PMS5003;54902;50.420;18.854;2023-07-13T02:27:29;3;3;2
55043;PMS5003;54902;50.420;18.854;2023-07-13T02:28:00;3;3;2
55043;PMS5003;54902;50.420;18.854;2023-07-13T02:28:31;3;3;2
55043;PMS5003;54902;50.420;18.854;2023-07-13T02:29:02;3;3;2
55043;PMS5003;54902;50.420;18.854;2023-07-13T02:29:33;3;3;2
55043;PMS5003;54902;50.420;18.854;2023-07-13T02:30:04;3;3;2
55043;PMS5003;54902;50.420;18.854;2023-07-13T02:30:36;3;3;2
55043;PMS5003;54902;50.420;18.854;2023-07-13T02:31:10;3;3;2
55043;PMS5003;54902;50.420;18.854;2023-07-13T02:31:43;3;3;2
55043;PMS5003;54902;50.420;18.854;2023-07-13T02:32:14;4;4;3
55043;PMS5003;54902;50.420;18.854;2023-07-13T02:32:44;4;4;3
55043;PMS5003;54902;50.420;18.854;2023-07-13T02:33:15;4;4;3
55043;PMS5003;54902;50.420;18.854;2023-07-13T02:33:47;4;4;3
55043;PMS5003;54902;50.420;18.854;2023-07-13T02:34:18;4;4;3
55043;PMS5003;54902;50.420;18.854;2023-07-13T02:34:49;3;3;2
55043;PMS5003;54902;50.420;18.854;2023-07-13T02:35:20;3;3;2
55043;PMS5003;54902;50.420;18.854;2023-07-13T02:35:50;3;3;2
55043;PMS5003;54902;50.420;18.854;2023-07-13T02:36:22;3;3;2
55043;PMS5003;54902;50.420;18.854;2023-07-13T02:36:53;3;3;2
55043;PMS5003;54902;50.420;18.854;2023-07-13T02:37:24;2;2;2
55043;PMS5003;54902;50.420;18.854;2023-07-13T02:37:55;2;2;2
55043;PMS5003;54902;50.420;18.854;2023-07-13T02:38:26;2;2;2
55043;PMS5003;54902;50.420;18.854;2023-07-13T02:38:59;2;2;2
55043;PMS5003;54902;50.420;18.854;2023-07-13T02:39:31;2;2;2
55043;PMS5003;54902;50.420;18.854;2023-07-13T02:40:03;2;2;2
55043;PMS5003;54902;50.420;18.854;2023-07-13T02:40:38;2;2;2
55043;PMS5003;54902;50.420;18.854;2023-07-13T02:41:09;2;2;2
55043;PMS5003;54902;50.420;18.854;2023-07-13T02:41:40;2;2;2
55043;PMS5003;54902;50.420;18.854;2023-07-13T02:42:11;2;2;2
55043;PMS5003;54902;50.420;18.854;2023-07-13T02:42:42;3;3;3
55043;PMS5003;54902;50.420;18.854;2023-07-13T02:43:13;3;3;3
55043;PMS5003;54902;50.420;18.854;2023-07-13T02:43:44;3;3;3
55043;PMS5003;54902;50.420;18.854;2023-07-13T02:44:15;3;3;3
55043;PMS5003;54902;50.420;18.854;2023-07-13T02:44:46;3;3;3
55043;PMS5003;54902;50.420;18.854;2023-07-13T02:45:18;3;3;3
55043;PMS5003;54902;50.420;18.854;2023-07-13T02:45:49;3;3;3
55043;PMS5003;54902;50.420;18.854;2023-07-13T02:46:19;3;3;3
55043;PMS5003;54902;50.420;18.854;2023-07-13T02:46:50;3;3;3
55043;PMS5003;54902;50.420;18.854;2023-07-13T02:47:21;3;3;3
55043;PMS5003;54902;50.420;18.854;2023-07-13T02:47:52;6;6;4
55043;PMS5003;54902;50.420;18.854;2023-07-13T02:48:23;6;6;4
55043;PMS5003;54902;50.420;18.854;2023-07-13T02:48:54;6;6;4
55043;PMS5003;54902;50.420;18.854;2023-07-13T02:49:25;6;6;4
55043;PMS5003;54902;50.420;18.854;2023-07-13T02:49:56;6;6;4
55043;PMS5003;54902;50.420;18.854;2023-07-13T02:50:27;6;6;4
55043;PMS5003;54902;50.420;18.854;2023-07-13T02:50:58;6;6;4
55043;PMS5003;54902;50.420;18.854;2023-07-13T02:51:29;6;6;4
55043;PMS5003;54902;50.420;18.854;2023-07-13T02:52:00;6;6;4
55043;PMS5003;54902;50.420;18.854;2023-07-13T02:52:31;6;6;4
55043;PMS5003;54902;50.420;18.854;2023-07-13T02:53:02;6;6;4
55043;PMS5003;54902;50.420;18.854;2023-07-13T02:53:33;6;6;4
55043;PMS5003;54902;50.420;18.854;2023-07-13T02:54:06;6;6;4
55043;PMS5003;54902;50.420;18.854;2023-07-13T02:54:38;6;6;4
55043;PMS5003;54902;50.420;18.854;2023-07-13T02:55:09;6;6;4
55043;PMS5003;54902;50.420;18.854;2023-07-13T02:55:40;6;6;4
55043;PMS5003;54902;50.420;18.854;2023-07-13T02:56:18;6;6;4
55043;PMS5003;54902;50.420;18.854;2023-07-13T02:56:52;6;6;4
55043;PMS5003;54902;50.420;18.854;2023-07-13T02:57:23;6;6;4
55043;PMS5003;54902;50.420;18.854;2023-07-13T02:57:54;6;6;4
55043;PMS5003;54902;50.420;18.854;2023-07-13T02:58:25;2;2;2
55043;PMS5003;54902;50.420;18.854;2023-07-13T02:58:56;2;2;2
55043;PMS5003;54902;50.420;18.854;2023-07-13T02:59:27;2;2;2
55043;PMS5003;54902;50.420;18.854;2023-07-13T02:59:58;2;2;2
55043;PMS5003;54902;50.420;18.854;2023-07-13T03:00:29;2;2;2
55043;PMS5003;54902;50.420;18.854;2023-07-13T03:01:05;2;2;2
55043;PMS5003;54902;50.420;18.854;2023-07-13T03:01:37;2;2;2
55043;PMS5003;54902;50.420;18.854;2023-07-13T03:02:08;2;2;2
55043;PMS5003;54902;50.420;18.854;2023-07-13T03:02:40;3;3;1
55043;PMS5003;54902;50.420;18.854;2023-07-13T03:03:11;3;3;1
55043;PMS5003;54902;50.420;18.854;2023-07-13T03:03:44;1;1;1
55043;PMS5003;54902;50.420;18.854;2023-07-13T03:04:16;1;1;1
55043;PMS5003;54902;50.420;18.854;2023-07-13T03:04:49;1;1;1
55043;PMS5003;54902;50.420;18.854;2023-07-13T03:05:21;1;1;1
55043;PMS5003;54902;50.420;18.854;2023-07-13T03:05:57;1;1;1
55043;PMS5003;54902;50.420;18.854;2023-07-13T03:06:33;1;1;1
55043;PMS5003;54902;50.420;18.854;2023-07-13T03:07:04;2;2;1
55043;PMS5003;54902;50.420;18.854;2023-07-13T03:07:35;2;2;1
55043;PMS5003;54902;50.420;18.854;2023-07-13T03:08:06;2;2;1
55043;PMS5003;54902;50.420;18.854;2023-07-13T03:08:38;2;2;1
55043;PMS5003;54902;50.420;18.854;2023-07-13T03:09:10;4;4;3
55043;PMS5003;54902;50.420;18.854;2023-07-13T03:09:43;4;4;3
55043;PMS5003;54902;50.420;18.854;2023-07-13T03:10:13;4;4;3
55043;PMS5003;54902;50.420;18.854;2023-07-13T03:10:44;4;4;3
55043;PMS5003;54902;50.420;18.854;2023-07-13T03:11:19;4;4;3
55043;PMS5003;54902;50.420;18.854;2023-07-13T03:11:54;4;4;3
55043;PMS5003;54902;50.420;18.854;2023-07-13T03:12:25;4;4;3
55043;PMS5003;54902;50.420;18.854;2023-07-13T03:12:56;4;4;3
55043;PMS5003;54902;50.420;18.854;2023-07-13T03:13:27;4;4;3
55043;PMS5003;54902;50.420;18.854;2023-07-13T03:13:59;4;4;3
55043;PMS5003;54902;50.420;18.854;2023-07-13T03:14:30;4;4;3
55043;PMS5003;54902;50.420;18.854;2023-07-13T03:15:01;4;4;3
55043;PMS5003;54902;50.420;18.854;2023-07-13T03:15:32;4;4;3
55043;PMS5003;54902;50.420;18.854;2023-07-13T03:16:03;4;4;3
55043;PMS5003;54902;50.420;18.854;2023-07-13T03:16:34;4;4;3
55043;PMS5003;54902;50.420;18.854;2023-07-13T03:17:05;4;4;3
55043;PMS5003;54902;50.420;18.854;2023-07-13T03:17:36;4;4;3
55043;PMS5003;54902;50.420;18.854;2023-07-13T03:18:07;4;4;3
55043;PMS5003;54902;50.420;18.854;2023-07-13T03:18:38;4;4;3
55043;PMS5003;54902;50.420;18.854;2023-07-13T03:19:09;4;4;3
55043;PMS5003;54902;50.420;18.854;2023-07-13T03:19:40;5;5;5
55043;PMS5003;54902;50.420;18.854;2023-07-13T03:20:11;5;5;5
55043;PMS5003;54902;50.420;18.854;2023-07-13T03:20:42;5;5;5
55043;PMS5003;54902;50.420;18.854;2023-07-13T03:21:14;5;5;5
55043;PMS5003;54902;50.420;18.854;2023-07-13T03:21:46;5;5;5
55043;PMS5003;54902;50.420;18.854;2023-07-13T03:22:17;5;5;5
55043;PMS5003;54902;50.420;18.854;2023-07-13T03:22:48;5;5;5
55043;PMS5003;54902;50.420;18.854;2023-07-13T03:23:19;5;5;5
55043;PMS5003;54902;50.420;18.854;2023-07-13T03:23:51;5;5;4
55043;PMS5003;54902;50.420;18.854;2023-07-13T03:24:22;5;5;4
55043;PMS5003;54902;50.420;18.854;2023-07-13T03:24:55;5;5;4
55043;PMS5003;54902;50.420;18.854;2023-07-13T03:25:26;5;5;4
55043;PMS5003;54902;50.420;18.854;2023-07-13T03:26:01;5;5;4
55043;PMS5003;54902;50.420;18.854;2023-07-13T03:26:33;5;5;4
55043;PMS5003;54902;50.420;18.854;2023-07-13T03:27:04;6;6;4
55043;PMS5003;54902;50.420;18.854;2023-07-13T03:27:37;6;6;4
55043;PMS5003;54902;50.420;18.854;2023-07-13T03:28:08;6;6;4
55043;PMS5003;54902;50.420;18.854;2023-07-13T03:28:39;6;6;4
55043;PMS5003;54902;50.420;18.854;2023-07-13T03:29:10;6;6;4
55043;PMS5003;54902;50.420;18.854;2023-07-13T03:29:41;6;6;4
55043;PMS5003;54902;50.420;18.854;2023-07-13T03:30:12;6;6;5
55043;PMS5003;54902;50.420;18.854;2023-07-13T03:30:43;6;6;5
55043;PMS5003;54902;50.420;18.854;2023-07-13T03:31:16;6;6;5
55043;PMS5003;54902;50.420;18.854;2023-07-13T03:31:48;6;6;5
55043;PMS5003;54902;50.420;18.854;2023-07-13T03:32:19;6;6;5